createdAt,value
2019-05-10T00:00:38.291Z,90.83
2019-05-10T00:01:38.317Z,90.38
2019-05-10T00:02:38.257Z,90.94
2019-05-10T00:03:38.257Z,90.01
2019-05-10T00:04:38.240Z,90.01
2019-05-10T00:05:38.249Z,90.28
2019-05-10T00:06:38.280Z,89.60
2019-05-10T00:07:38.242Z,90.12
2019-05-10T00:08:38.225Z,90.32
2019-05-10T00:09:38.181Z,90.32
2019-05-10T00:10:38.187Z,89.70
2019-05-10T00:11:38.171Z,90.42
2019-05-10T00:12:38.154Z,90.48
2019-05-10T00:13:38.182Z,90.32
2019-05-10T00:14:38.160Z,90.01
2019-05-10T00:15:38.123Z,90.01
2019-05-10T00:16:38.109Z,90.94
2019-05-10T00:17:38.145Z,90.83
2019-05-10T00:18:38.094Z,91.55
2019-05-10T00:19:38.117Z,91.66
2019-05-10T00:20:38.070Z,90.94
2019-05-10T00:21:38.068Z,90.78
2019-05-10T00:22:38.052Z,91.04
2019-05-10T00:23:38.028Z,90.47
2019-05-10T00:24:38.014Z,90.26
2019-05-10T00:25:38.150Z,90.67
2019-05-10T00:26:38.042Z,90.67
2019-05-10T00:27:37.984Z,90.26
2019-05-10T00:28:37.973Z,90.22
2019-05-10T00:29:37.971Z,90.42
2019-05-10T00:30:37.976Z,90.53
2019-05-10T00:31:38.005Z,90.36
2019-05-10T00:32:37.949Z,91.08
2019-05-10T00:33:37.930Z,90.47
2019-05-10T00:34:37.911Z,90.06
2019-05-10T00:35:37.922Z,90.88
2019-05-10T00:36:37.908Z,90.26
2019-05-10T00:37:37.925Z,90.47
2019-05-10T00:38:37.903Z,90.36
2019-05-10T00:39:37.858Z,90.06
2019-05-10T00:40:37.876Z,89.95
2019-05-10T00:41:37.845Z,89.95
2019-05-10T00:42:37.820Z,89.54
2019-05-10T00:43:37.863Z,89.54
2019-05-10T00:44:37.848Z,89.40
2019-05-10T00:45:37.801Z,89.64
2019-05-10T00:46:37.791Z,89.64
2019-05-10T00:47:37.773Z,89.54
2019-05-10T00:48:37.770Z,89.44
2019-05-10T00:49:37.796Z,89.75
2019-05-10T00:50:37.742Z,89.54
2019-05-10T00:51:37.756Z,89.64
2019-05-10T00:52:37.723Z,89.85
2019-05-10T00:53:37.696Z,89.75
2019-05-10T00:54:37.793Z,90.16
2019-05-10T00:55:37.752Z,90.36
2019-05-10T00:56:37.672Z,90.36
2019-05-10T00:57:37.669Z,90.16
2019-05-10T00:58:37.646Z,90.30
2019-05-10T00:59:37.645Z,90.67
2019-05-10T01:00:37.634Z,90.41
2019-05-10T01:01:37.700Z,90.26
2019-05-10T01:02:37.634Z,90.06
2019-05-10T01:03:37.647Z,89.95
2019-05-10T01:04:37.606Z,89.69
2019-05-10T01:05:37.592Z,89.85
2019-05-10T01:06:37.574Z,90.36
2019-05-10T01:07:37.577Z,90.41
2019-05-10T01:08:37.562Z,90.20
2019-05-10T01:09:37.539Z,90.09
2019-05-10T01:10:37.556Z,90.00
2019-05-10T01:11:37.514Z,90.20
2019-05-10T01:12:37.501Z,89.75
2019-05-10T01:13:37.553Z,90.26
2019-05-10T01:14:37.484Z,89.95
2019-05-10T01:15:37.485Z,89.79
2019-05-10T01:16:37.459Z,90.30
2019-05-10T01:17:37.456Z,90.30
2019-05-10T01:18:37.432Z,91.13
2019-05-10T01:19:37.485Z,90.30
2019-05-10T01:20:37.422Z,90.30
2019-05-10T01:21:37.416Z,90.00
2019-05-10T01:22:37.424Z,89.58
2019-05-10T01:23:37.374Z,90.20
2019-05-10T01:24:37.383Z,89.69
2019-05-10T01:25:37.400Z,89.58
2019-05-10T01:26:37.343Z,89.38
2019-05-10T01:27:37.333Z,89.58
2019-05-10T01:28:37.368Z,89.58
2019-05-10T01:29:37.319Z,89.79
2019-05-10T01:30:37.301Z,90.00
2019-05-10T01:31:37.331Z,90.09
2019-05-10T01:32:37.313Z,89.79
2019-05-10T01:33:37.285Z,90.00
2019-05-10T01:34:37.256Z,89.44
2019-05-10T01:35:37.271Z,89.44
2019-05-10T01:36:37.241Z,89.58
2019-05-10T01:37:37.269Z,89.69
2019-05-10T01:38:37.214Z,89.54
2019-05-10T01:39:37.208Z,89.58
2019-05-10T01:40:37.197Z,89.34
2019-05-10T01:41:37.176Z,89.64
2019-05-10T01:42:37.173Z,89.64
2019-05-10T01:43:37.220Z,89.60
2019-05-10T01:44:37.163Z,89.34
2019-05-10T01:45:37.136Z,89.50
2019-05-10T01:46:37.131Z,89.50
2019-05-10T01:47:37.125Z,89.70
2019-05-10T01:48:37.133Z,88.78
2019-05-10T01:49:37.154Z,88.53
2019-05-10T01:50:37.118Z,87.82
2019-05-10T01:51:37.086Z,88.43
2019-05-10T01:52:37.071Z,88.53
2019-05-10T01:53:37.067Z,89.76
2019-05-10T01:54:37.049Z,88.12
2019-05-10T01:55:50.940Z,88.49
2019-05-10T01:56:38.016Z,87.51
2019-05-10T01:57:37.011Z,87.71
2019-05-10T01:58:37.018Z,87.67
2019-05-10T01:59:36.995Z,87.77
2019-05-10T02:00:36.985Z,88.49
2019-05-10T02:01:37.001Z,88.29
2019-05-10T02:02:36.965Z,88.29
2019-05-10T02:03:36.950Z,88.39
2019-05-10T02:04:36.958Z,87.88
2019-05-10T02:05:36.927Z,87.98
2019-05-10T02:06:36.926Z,87.98
2019-05-10T02:07:36.952Z,88.39
2019-05-10T02:08:36.913Z,88.29
2019-05-10T02:09:36.884Z,88.18
2019-05-10T02:10:36.881Z,88.29
2019-05-10T02:11:36.865Z,87.88
2019-05-10T02:12:36.845Z,88.29
2019-05-10T02:13:36.881Z,88.08
2019-05-10T02:14:36.833Z,88.08
2019-05-10T02:15:36.813Z,88.08
2019-05-10T02:16:36.796Z,88.08
2019-05-10T02:17:36.820Z,87.98
2019-05-10T02:18:36.793Z,87.26
2019-05-10T02:19:36.848Z,87.67
2019-05-10T02:20:36.784Z,88.08
2019-05-10T02:21:36.758Z,87.77
2019-05-10T02:22:36.752Z,87.77
2019-05-10T02:23:36.725Z,87.67
2019-05-10T02:24:36.727Z,87.98
2019-05-10T02:25:36.769Z,87.57
2019-05-10T02:26:36.691Z,87.77
2019-05-10T02:27:36.683Z,87.77
2019-05-10T02:28:36.671Z,88.08
2019-05-10T02:29:36.715Z,88.18
2019-05-10T02:30:36.658Z,88.08
2019-05-10T02:31:36.695Z,86.95
2019-05-10T02:32:36.638Z,86.85
2019-05-10T02:33:36.624Z,88.08
2019-05-10T02:34:36.608Z,86.85
2019-05-10T02:35:36.604Z,87.05
2019-05-10T02:36:36.697Z,86.44
2019-05-10T02:37:36.666Z,87.37
2019-05-10T02:38:36.559Z,87.05
2019-05-10T02:39:36.561Z,87.16
2019-05-10T02:40:36.546Z,86.75
2019-05-10T02:41:36.557Z,86.44
2019-05-10T02:42:36.537Z,87.05
2019-05-10T02:43:36.557Z,86.65
2019-05-10T02:44:36.497Z,86.33
2019-05-10T02:45:36.486Z,86.54
2019-05-10T02:46:36.489Z,86.44
2019-05-10T02:47:36.456Z,86.33
2019-05-10T02:48:36.464Z,86.65
2019-05-10T02:49:36.478Z,85.99
2019-05-10T02:50:36.444Z,86.09
2019-05-10T02:51:36.423Z,86.19
2019-05-10T02:52:36.441Z,86.30
2019-05-10T02:53:36.408Z,86.40
2019-05-10T02:54:36.408Z,85.82
2019-05-10T02:55:36.454Z,86.09
2019-05-10T02:56:36.370Z,86.30
2019-05-10T02:57:36.370Z,85.99
2019-05-10T02:58:36.354Z,85.89
2019-05-10T02:59:36.342Z,86.09
2019-05-10T03:00:36.366Z,86.09
2019-05-10T03:01:36.422Z,86.05
2019-05-10T03:02:36.310Z,85.64
2019-05-10T03:03:36.300Z,85.95
2019-05-10T03:04:36.288Z,85.68
2019-05-10T03:05:36.271Z,86.46
2019-05-10T03:06:36.270Z,86.05
2019-05-10T03:07:36.359Z,86.46
2019-05-10T03:08:36.242Z,86.46
2019-05-10T03:09:36.250Z,86.57
2019-05-10T03:10:36.218Z,86.36
2019-05-10T03:11:36.252Z,86.50
2019-05-10T03:12:36.194Z,86.09
2019-05-10T03:13:36.229Z,86.57
2019-05-10T03:14:36.200Z,86.25
2019-05-10T03:15:36.286Z,86.25
2019-05-10T03:16:36.153Z,86.25
2019-05-10T03:17:36.132Z,86.30
2019-05-10T03:18:36.127Z,86.30
2019-05-10T03:19:36.142Z,86.25
2019-05-10T03:20:36.102Z,86.36
2019-05-10T03:21:36.094Z,86.57
2019-05-10T03:22:36.104Z,86.30
2019-05-10T03:23:36.087Z,86.50
2019-05-10T03:24:36.064Z,86.50
2019-05-10T03:25:36.130Z,86.50
2019-05-10T03:26:50.319Z,86.50
2019-05-10T03:27:37.059Z,86.09
2019-05-10T03:28:36.034Z,86.50
2019-05-10T03:29:36.050Z,86.81
2019-05-10T03:30:35.994Z,86.91
2019-05-10T03:31:36.031Z,86.71
2019-05-10T03:32:35.977Z,86.91
2019-05-10T03:33:36.081Z,86.19
2019-05-10T03:34:35.962Z,86.77
2019-05-10T03:35:35.945Z,87.94
2019-05-10T03:36:35.930Z,87.94
2019-05-10T03:37:35.955Z,87.84
2019-05-10T03:38:35.927Z,87.22
2019-05-10T03:39:35.894Z,87.12
2019-05-10T03:40:35.895Z,87.12
2019-05-10T03:41:35.887Z,86.60
2019-05-10T03:42:35.892Z,87.12
2019-05-10T03:43:35.912Z,87.18
2019-05-10T03:44:35.878Z,88.00
2019-05-10T03:45:35.850Z,87.02
2019-05-10T03:46:35.819Z,87.22
2019-05-10T03:47:35.843Z,88.00
2019-05-10T03:48:35.804Z,87.90
2019-05-10T03:49:35.953Z,87.38
2019-05-10T03:50:35.785Z,87.90
2019-05-10T03:51:35.765Z,87.32
2019-05-10T03:52:35.751Z,87.73
2019-05-10T03:53:35.741Z,87.70
2019-05-10T03:54:35.743Z,87.59
2019-05-10T03:55:35.790Z,88.00
2019-05-10T03:56:35.717Z,87.94
2019-05-10T03:57:35.762Z,87.63
2019-05-10T03:58:35.702Z,88.10
2019-05-10T03:59:35.675Z,88.14
2019-05-10T04:00:35.671Z,87.70
2019-05-10T04:01:35.757Z,87.38
2019-05-10T04:02:35.647Z,87.73
2019-05-10T04:03:35.649Z,87.38
2019-05-10T04:04:35.663Z,87.79
2019-05-10T04:05:35.780Z,87.84
2019-05-10T04:06:35.617Z,87.70
2019-05-10T04:07:35.637Z,86.25
2019-05-10T04:08:35.638Z,86.66
2019-05-10T04:09:35.570Z,86.36
2019-05-10T04:10:35.561Z,86.05
2019-05-10T04:11:35.543Z,86.52
2019-05-10T04:12:35.550Z,86.73
2019-05-10T04:13:35.583Z,86.77
2019-05-10T04:14:35.513Z,86.52
2019-05-10T04:15:35.501Z,86.15
2019-05-10T04:16:35.608Z,86.57
2019-05-10T04:17:35.475Z,86.32
2019-05-10T04:18:35.642Z,86.32
2019-05-10T04:19:35.490Z,86.83
2019-05-10T04:20:35.482Z,86.22
2019-05-10T04:21:35.444Z,86.32
2019-05-10T04:22:35.460Z,86.32
2019-05-10T04:23:35.429Z,86.42
2019-05-10T04:24:36.404Z,86.32
2019-05-10T04:25:35.445Z,86.32
2019-05-10T04:26:35.416Z,85.80
2019-05-10T04:27:35.401Z,85.60
2019-05-10T04:28:35.367Z,86.22
2019-05-10T04:29:35.393Z,85.71
2019-05-10T04:30:35.381Z,85.19
2019-05-10T04:31:35.382Z,85.60
2019-05-10T04:32:35.321Z,85.50
2019-05-10T04:33:35.320Z,85.30
2019-05-10T04:34:35.327Z,85.15
2019-05-10T04:35:35.303Z,85.60
2019-05-10T04:36:35.288Z,85.77
2019-05-10T04:37:35.296Z,85.60
2019-05-10T04:38:35.261Z,85.15
2019-05-10T04:39:35.356Z,85.30
2019-05-10T04:40:35.300Z,85.66
2019-05-10T04:41:35.231Z,85.25
2019-05-10T04:42:35.232Z,86.07
2019-05-10T04:43:35.250Z,85.91
2019-05-10T04:44:35.219Z,85.25
2019-05-10T04:45:35.181Z,85.66
2019-05-10T04:46:35.176Z,85.87
2019-05-10T04:47:35.155Z,85.56
2019-05-10T04:48:35.146Z,85.80
2019-05-10T04:49:35.177Z,85.46
2019-05-10T04:50:35.139Z,85.50
2019-05-10T04:51:35.109Z,85.15
2019-05-10T04:52:35.104Z,85.25
2019-05-10T04:53:35.130Z,85.97
2019-05-10T04:54:35.102Z,85.66
2019-05-10T04:55:35.095Z,85.97
2019-05-10T04:56:35.102Z,86.18
2019-05-10T04:57:49.298Z,86.07
2019-05-10T04:58:36.034Z,86.11
2019-05-10T04:59:35.026Z,85.97
2019-05-10T05:00:35.031Z,86.38
2019-05-10T05:01:35.032Z,85.87
2019-05-10T05:02:34.992Z,86.07
2019-05-10T05:03:35.015Z,85.77
2019-05-10T05:04:34.983Z,85.66
2019-05-10T05:05:34.970Z,85.46
2019-05-10T05:06:34.947Z,85.77
2019-05-10T05:07:34.962Z,85.56
2019-05-10T05:08:34.941Z,84.84
2019-05-10T05:09:34.931Z,85.25
2019-05-10T05:10:34.901Z,85.22
2019-05-10T05:11:34.898Z,84.91
2019-05-10T05:12:34.886Z,84.50
2019-05-10T05:13:35.558Z,85.01
2019-05-10T05:14:34.859Z,84.91
2019-05-10T05:15:34.893Z,85.25
2019-05-10T05:16:34.839Z,84.50
2019-05-10T05:17:35.223Z,84.60
2019-05-10T05:18:34.822Z,83.88
2019-05-10T05:19:34.877Z,83.78
2019-05-10T05:20:34.814Z,84.19
2019-05-10T05:21:34.844Z,84.09
2019-05-10T05:22:34.778Z,84.25
2019-05-10T05:23:34.832Z,84.36
2019-05-10T05:24:34.746Z,84.39
2019-05-10T05:25:35.108Z,84.15
2019-05-10T05:26:35.733Z,84.05
2019-05-10T05:27:34.726Z,84.15
2019-05-10T05:28:34.755Z,84.05
2019-05-10T05:29:34.787Z,84.42
2019-05-10T05:30:38.528Z,83.84
2019-05-10T05:31:34.839Z,84.15
2019-05-10T05:32:38.434Z,83.84
2019-05-10T05:33:35.655Z,83.84
2019-05-10T05:34:34.656Z,84.36
2019-05-10T05:35:34.627Z,83.81
2019-05-10T05:36:34.609Z,84.15
2019-05-10T05:37:34.734Z,84.36
2019-05-10T05:38:34.594Z,84.87
2019-05-10T05:39:34.576Z,84.56
2019-05-10T05:40:34.565Z,84.56
2019-05-10T05:41:47.765Z,84.15
2019-05-10T05:42:35.597Z,84.46
2019-05-10T05:43:34.531Z,84.87
2019-05-10T05:44:34.542Z,84.87
2019-05-10T05:45:35.624Z,85.17
2019-05-10T05:46:34.501Z,84.05
2019-05-10T05:47:37.682Z,84.46
2019-05-10T05:48:40.413Z,84.36
2019-05-10T05:49:35.468Z,83.81
2019-05-10T05:50:34.457Z,83.60
2019-05-10T05:51:34.443Z,84.05
2019-05-10T05:52:34.434Z,83.84
2019-05-10T05:53:35.932Z,83.23
2019-05-10T05:54:35.462Z,83.50
2019-05-10T05:55:34.403Z,83.50
2019-05-10T05:56:34.448Z,83.39
2019-05-10T05:57:34.394Z,83.81
2019-05-10T05:58:38.246Z,84.42
2019-05-10T05:59:35.392Z,83.70
2019-05-10T06:00:37.741Z,83.66
2019-05-10T06:01:35.342Z,82.84
2019-05-10T06:02:34.431Z,82.75
2019-05-10T06:03:34.331Z,82.95
2019-05-10T06:04:34.312Z,83.09
2019-05-10T06:05:37.136Z,82.75
2019-05-10T06:06:34.332Z,82.43
2019-05-10T06:07:37.963Z,82.54
2019-05-10T06:08:35.291Z,82.84
2019-05-10T06:09:37.728Z,82.23
2019-05-10T06:10:35.240Z,82.75
2019-05-10T06:11:35.824Z,82.34
2019-05-10T06:12:34.274Z,82.54
2019-05-10T06:13:34.215Z,83.05
2019-05-10T06:14:34.207Z,82.43
2019-05-10T06:15:34.239Z,82.95
2019-05-10T06:16:34.180Z,82.75
2019-05-10T06:17:34.171Z,82.13
2019-05-10T06:18:34.215Z,81.31
2019-05-10T06:19:34.146Z,81.51
2019-05-10T06:20:38.121Z,81.93
2019-05-10T06:21:35.118Z,82.95
2019-05-10T06:22:38.330Z,81.93
2019-05-10T06:23:35.751Z,81.72
2019-05-10T06:24:34.522Z,82.84
2019-05-10T06:25:42.767Z,82.64
2019-05-10T06:26:35.062Z,81.62
2019-05-10T06:27:35.421Z,82.64
2019-05-10T06:28:57.705Z,81.51
2019-05-10T06:29:35.104Z,81.51
2019-05-10T06:30:34.016Z,82.64
2019-05-10T06:31:34.007Z,82.95
2019-05-10T06:32:34.014Z,83.05
2019-05-10T06:33:33.988Z,82.54
2019-05-10T06:34:38.735Z,82.43
2019-05-10T06:35:35.010Z,82.43
2019-05-10T06:36:33.973Z,82.43
2019-05-10T06:37:34.002Z,82.84
2019-05-10T06:38:34.097Z,82.54
2019-05-10T06:39:34.467Z,83.32
2019-05-10T06:40:41.219Z,81.01
2019-05-10T06:41:34.946Z,81.21
2019-05-10T06:42:34.616Z,80.80
2019-05-10T06:43:33.877Z,81.21
2019-05-10T06:44:33.910Z,81.10
2019-05-10T06:45:33.895Z,80.90
2019-05-10T06:46:33.867Z,80.90
2019-05-10T06:47:33.895Z,80.90
2019-05-10T06:48:33.884Z,80.90
2019-05-10T06:49:33.833Z,81.99
2019-05-10T06:50:33.795Z,82.23
2019-05-10T06:51:33.783Z,81.48
2019-05-10T06:52:33.798Z,81.68
2019-05-10T06:53:33.805Z,80.76
2019-05-10T06:54:33.818Z,81.58
2019-05-10T06:55:33.788Z,80.97
2019-05-10T06:56:33.729Z,81.17
2019-05-10T06:57:33.746Z,82.20
2019-05-10T06:58:36.285Z,81.17
2019-05-10T06:59:33.741Z,82.15
2019-05-10T07:00:38.176Z,80.93
2019-05-10T07:01:38.307Z,82.26
2019-05-10T07:02:34.661Z,83.07
2019-05-10T07:03:33.653Z,82.15
2019-05-10T07:04:37.922Z,83.52
2019-05-10T07:05:34.825Z,83.28
2019-05-10T07:06:33.627Z,83.69
2019-05-10T07:07:43.999Z,83.89
2019-05-10T07:08:43.826Z,84.71
2019-05-10T07:10:00.395Z,84.20
2019-05-10T07:10:34.582Z,84.24
2019-05-10T07:11:33.613Z,84.71
2019-05-10T07:12:33.576Z,84.30
2019-05-10T07:13:33.571Z,84.00
2019-05-10T07:14:33.551Z,83.38
2019-05-10T07:15:35.640Z,82.97
2019-05-10T07:16:34.572Z,83.48
2019-05-10T07:17:41.384Z,83.28
2019-05-10T07:18:34.499Z,83.18
2019-05-10T07:19:34.791Z,83.07
2019-05-10T07:20:34.498Z,82.63
2019-05-10T07:21:33.510Z,82.67
2019-05-10T07:22:33.495Z,83.24
2019-05-10T07:23:33.444Z,83.14
2019-05-10T07:24:33.445Z,82.63
2019-05-10T07:25:37.615Z,82.63
2019-05-10T07:26:34.407Z,82.12
2019-05-10T07:27:36.657Z,81.77
2019-05-10T07:28:33.423Z,82.69
2019-05-10T07:29:41.826Z,80.71
2019-05-10T07:30:34.363Z,80.91
2019-05-10T07:31:33.372Z,80.82
2019-05-10T07:32:33.362Z,79.86
2019-05-10T07:33:37.211Z,78.23
2019-05-10T07:34:34.354Z,79.04
2019-05-10T07:35:36.993Z,77.92
2019-05-10T07:36:34.308Z,76.80
2019-05-10T07:37:33.317Z,77.78
2019-05-10T07:38:33.294Z,77.58
2019-05-10T07:39:33.285Z,77.27
2019-05-10T07:40:33.282Z,77.85
2019-05-10T07:41:33.261Z,79.58
2019-05-10T07:42:33.240Z,78.09
2019-05-10T07:43:33.223Z,77.98
2019-05-10T07:44:33.218Z,79.32
2019-05-10T07:45:33.248Z,79.21
2019-05-10T07:46:33.225Z,80.74
2019-05-10T07:47:33.227Z,80.33
2019-05-10T07:48:33.165Z,79.72
2019-05-10T07:49:33.163Z,80.80
2019-05-10T07:50:33.148Z,80.77
2019-05-10T07:51:33.136Z,80.97
2019-05-10T07:52:36.299Z,80.42
2019-05-10T07:53:34.114Z,79.30
2019-05-10T07:54:37.728Z,78.16
2019-05-10T07:55:34.086Z,80.19
2019-05-10T07:56:33.143Z,80.60
2019-05-10T07:57:33.059Z,79.79
2019-05-10T07:58:38.152Z,81.41
2019-05-10T07:59:49.662Z,81.58
2019-05-10T08:00:37.995Z,79.17
2019-05-10T08:01:34.897Z,79.58
2019-05-10T08:02:33.030Z,79.54
2019-05-10T08:03:35.551Z,79.54
2019-05-10T08:04:34.043Z,77.71
2019-05-10T08:05:32.981Z,76.08
2019-05-10T08:06:40.196Z,76.59
2019-05-10T08:07:33.952Z,78.83
2019-05-10T08:08:32.951Z,78.32
2019-05-10T08:09:37.208Z,79.03
2019-05-10T08:10:33.954Z,79.03
2019-05-10T08:11:32.934Z,79.24
2019-05-10T08:12:35.134Z,78.89
2019-05-10T08:13:33.886Z,77.51
2019-05-10T08:14:32.881Z,78.89
2019-05-10T08:15:34.793Z,78.69
2019-05-10T08:16:32.926Z,77.17
2019-05-10T08:17:35.457Z,75.57
2019-05-10T08:18:33.847Z,75.20
2019-05-10T08:19:37.447Z,75.40
2019-05-10T08:20:46.461Z,77.34
2019-05-10T08:21:32.815Z,76.49
2019-05-10T08:22:41.611Z,77.26
2019-05-10T08:23:33.788Z,76.56
2019-05-10T08:24:35.492Z,76.76
2019-05-10T08:25:36.326Z,73.77
2019-05-10T08:26:33.759Z,73.67
2019-05-10T08:27:32.741Z,73.80
2019-05-10T08:28:36.457Z,76.35
2019-05-10T08:29:33.724Z,75.54
2019-05-10T08:30:33.253Z,75.13
2019-05-10T08:31:40.394Z,74.21
2019-05-10T08:32:34.911Z,74.76
2019-05-10T08:33:32.876Z,73.94
2019-05-10T08:34:35.321Z,74.04
2019-05-10T08:35:35.869Z,75.64
2019-05-10T08:36:37.233Z,74.96
2019-05-10T08:37:37.739Z,74.35
2019-05-10T08:38:32.612Z,74.15
2019-05-10T08:39:43.922Z,73.02
2019-05-10T08:40:37.720Z,72.92
2019-05-10T08:41:32.802Z,72.78
2019-05-10T08:42:43.823Z,73.19
2019-05-10T08:43:39.021Z,73.40
2019-05-10T08:44:33.545Z,72.96
2019-05-10T08:45:32.619Z,72.04
2019-05-10T08:46:40.192Z,72.04
2019-05-10T08:47:33.505Z,71.73
2019-05-10T08:48:33.067Z,72.25
2019-05-10T08:49:44.283Z,72.41
2019-05-10T08:50:48.828Z,71.16
2019-05-10T08:51:34.550Z,72.08
2019-05-10T08:52:34.005Z,70.25
2019-05-10T08:53:32.955Z,70.42
2019-05-10T08:54:32.922Z,70.38
2019-05-10T08:55:32.415Z,68.49
2019-05-10T08:56:33.340Z,68.59
2019-05-10T08:57:34.798Z,70.59
2019-05-10T08:58:37.136Z,70.38
2019-05-10T08:59:33.977Z,70.28
2019-05-10T09:00:48.978Z,70.15
2019-05-10T09:01:44.781Z,68.73
2019-05-10T09:02:33.374Z,67.81
2019-05-10T09:03:32.382Z,68.49
2019-05-10T09:04:42.268Z,67.75
2019-05-10T09:05:34.043Z,67.72
2019-05-10T09:06:32.833Z,65.66
2019-05-10T09:07:34.981Z,65.25
2019-05-10T09:08:34.705Z,66.13
2019-05-10T09:09:33.892Z,67.01
2019-05-10T09:10:33.266Z,65.50
2019-05-10T09:11:32.784Z,64.35
2019-05-10T09:12:32.947Z,62.76
2019-05-10T09:13:37.078Z,62.56
2019-05-10T09:14:33.240Z,62.66
2019-05-10T09:15:33.093Z,62.66
2019-05-10T09:16:39.208Z,65.97
2019-05-10T09:17:33.172Z,65.13
2019-05-10T09:18:33.159Z,62.56
2019-05-10T09:19:37.465Z,61.04
2019-05-10T09:20:33.204Z,63.47
2019-05-10T09:21:32.312Z,63.81
2019-05-10T09:22:38.242Z,61.60
2019-05-10T09:23:33.107Z,62.52
2019-05-10T09:24:35.002Z,63.26
2019-05-10T09:25:33.827Z,64.91
2019-05-10T09:26:32.315Z,64.40
2019-05-10T09:27:33.393Z,64.91
2019-05-10T09:28:32.294Z,64.10
2019-05-10T09:29:37.102Z,63.79
2019-05-10T09:30:35.510Z,65.24
2019-05-10T09:31:32.665Z,65.75
2019-05-10T09:32:33.407Z,66.43
2019-05-10T09:33:32.090Z,65.14
2019-05-10T09:34:32.410Z,67.03
2019-05-10T09:35:32.971Z,68.35
2019-05-10T09:36:36.018Z,67.00
2019-05-10T09:37:32.130Z,67.14
2019-05-10T09:38:37.166Z,67.41
2019-05-10T09:39:32.935Z,67.61
2019-05-10T09:40:32.780Z,64.70
2019-05-10T09:41:33.719Z,63.92
2019-05-10T09:42:39.765Z,64.33
2019-05-10T09:43:32.977Z,65.31
2019-05-10T09:44:32.951Z,65.52
2019-05-10T09:45:32.415Z,64.70
2019-05-10T09:46:32.468Z,67.24
2019-05-10T09:47:33.032Z,67.07
2019-05-10T09:48:33.296Z,67.78
2019-05-10T09:49:33.266Z,66.36
2019-05-10T09:50:41.040Z,66.80
2019-05-10T09:51:33.303Z,63.66
2019-05-10T09:52:31.798Z,62.14
2019-05-10T09:53:31.794Z,63.26
2019-05-10T09:54:33.581Z,63.06
2019-05-10T09:55:31.802Z,61.25
2019-05-10T09:56:32.775Z,61.08
2019-05-10T09:57:32.739Z,62.63
2019-05-10T09:58:31.728Z,65.58
2019-05-10T09:59:31.717Z,67.41
2019-05-10T10:00:31.728Z,68.22
2019-05-10T10:01:31.716Z,67.61
2019-05-10T10:02:33.922Z,66.42
2019-05-10T10:03:42.338Z,64.18
2019-05-10T10:04:32.662Z,65.20
2019-05-10T10:05:31.646Z,62.90
2019-05-10T10:06:31.644Z,62.76
2019-05-10T10:07:33.449Z,64.52
2019-05-10T10:08:31.621Z,65.74
2019-05-10T10:09:37.345Z,67.88
2019-05-10T10:10:32.704Z,69.70
2019-05-10T10:11:31.605Z,69.57
2019-05-10T10:12:31.572Z,68.59
2019-05-10T10:13:42.641Z,68.35
2019-05-10T10:14:37.755Z,68.55
2019-05-10T10:15:34.275Z,69.06
2019-05-10T10:16:31.542Z,68.76
2019-05-10T10:17:40.264Z,69.17
2019-05-10T10:18:32.549Z,69.03
2019-05-10T10:19:31.505Z,68.55
2019-05-10T10:20:36.097Z,69.03
2019-05-10T10:21:35.525Z,69.13
2019-05-10T10:22:32.482Z,68.52
2019-05-10T10:23:34.916Z,69.10
2019-05-10T10:24:32.519Z,67.38
2019-05-10T10:25:35.205Z,67.20
2019-05-10T10:26:32.462Z,65.78
2019-05-10T10:27:34.614Z,63.95
2019-05-10T10:28:31.401Z,64.81
2019-05-10T10:29:34.015Z,64.95
2019-05-10T10:30:31.699Z,64.64
2019-05-10T10:31:33.560Z,63.20
2019-05-10T10:32:34.807Z,59.32
2019-05-10T10:33:31.356Z,59.32
2019-05-10T10:34:32.618Z,59.16
2019-05-10T10:35:32.360Z,59.21
2019-05-10T10:36:31.339Z,57.69
2019-05-10T10:37:31.499Z,56.78
2019-05-10T10:38:31.507Z,57.39
2019-05-10T10:39:31.292Z,57.52
2019-05-10T10:40:35.376Z,55.80
2019-05-10T10:41:32.364Z,57.42
2019-05-10T10:42:31.263Z,55.87
2019-05-10T10:43:31.235Z,55.27
2019-05-10T10:44:31.232Z,54.56
2019-05-10T10:45:31.234Z,55.98
2019-05-10T10:46:34.430Z,56.88
2019-05-10T10:47:32.361Z,56.05
2019-05-10T10:48:31.204Z,57.03
2019-05-10T10:49:32.111Z,55.90
2019-05-10T10:50:31.159Z,54.58
2019-05-10T10:51:32.335Z,55.44
2019-05-10T10:52:31.134Z,55.54
2019-05-10T10:53:31.160Z,55.67
2019-05-10T10:54:36.511Z,56.51
2019-05-10T10:55:36.599Z,57.95
2019-05-10T10:56:32.117Z,58.76
2019-05-10T10:57:31.078Z,56.66
2019-05-10T10:58:31.069Z,56.66
2019-05-10T10:59:31.111Z,57.60
2019-05-10T11:00:31.110Z,56.08
2019-05-10T11:01:46.211Z,53.55
2019-05-10T11:02:33.892Z,54.00
2019-05-10T11:03:32.568Z,55.09
2019-05-10T11:04:31.022Z,56.30
2019-05-10T11:05:31.196Z,54.36
2019-05-10T11:06:30.994Z,53.98
2019-05-10T11:07:33.798Z,55.52
2019-05-10T11:08:33.247Z,55.73
2019-05-10T11:09:31.190Z,54.41
2019-05-10T11:10:31.328Z,54.41
2019-05-10T11:11:38.783Z,56.05
2019-05-10T11:12:31.927Z,56.76
2019-05-10T11:13:43.959Z,56.96
2019-05-10T11:14:39.762Z,55.22
2019-05-10T11:15:35.976Z,56.00
2019-05-10T11:16:30.883Z,53.90
2019-05-10T11:17:30.900Z,54.84
2019-05-10T11:18:31.775Z,55.95
2019-05-10T11:19:31.710Z,55.98
2019-05-10T11:20:31.769Z,56.48
2019-05-10T11:21:33.254Z,58.92
2019-05-10T11:22:31.807Z,59.19
2019-05-10T11:23:37.551Z,59.19
2019-05-10T11:24:31.781Z,61.29
2019-05-10T11:25:30.793Z,60.71
2019-05-10T11:26:34.961Z,61.08
2019-05-10T11:27:31.001Z,60.88
2019-05-10T11:28:38.937Z,59.11
2019-05-10T11:29:31.758Z,58.98
2019-05-10T11:30:32.475Z,60.60
2019-05-10T11:31:31.297Z,63.45
2019-05-10T11:32:31.463Z,65.10
2019-05-10T11:33:33.544Z,65.43
2019-05-10T11:34:37.475Z,64.89
2019-05-10T11:35:34.479Z,65.32
2019-05-10T11:36:31.318Z,65.62
2019-05-10T11:37:35.676Z,64.92
2019-05-10T11:38:31.916Z,64.69
2019-05-10T11:39:33.152Z,63.21
2019-05-10T11:40:34.898Z,62.70
2019-05-10T11:41:31.463Z,63.10
2019-05-10T11:42:31.063Z,62.16
2019-05-10T11:43:31.374Z,61.63
2019-05-10T11:44:31.717Z,59.84
2019-05-10T11:45:32.231Z,58.93
2019-05-10T11:46:31.131Z,58.56
2019-05-10T11:47:31.228Z,58.76
2019-05-10T11:48:36.758Z,59.06
2019-05-10T11:49:31.513Z,61.08
2019-05-10T11:50:34.885Z,61.39
2019-05-10T11:51:31.539Z,62.40
2019-05-10T11:52:34.879Z,61.79
2019-05-10T11:53:31.668Z,60.75
2019-05-10T11:54:31.895Z,61.08
2019-05-10T11:55:30.957Z,61.90
2019-05-10T11:56:32.315Z,62.60
2019-05-10T11:57:32.914Z,62.50
2019-05-10T11:58:31.149Z,63.75
2019-05-10T11:59:33.949Z,64.79
2019-05-10T12:00:34.218Z,62.95
2019-05-10T12:01:30.380Z,59.73
2019-05-10T12:03:31.914Z,60.65
2019-05-10T12:04:38.200Z,58.14
2019-05-10T12:05:31.966Z,59.08
2019-05-10T12:06:32.022Z,58.95
2019-05-10T12:07:35.140Z,60.67
2019-05-10T12:08:31.301Z,60.27
2019-05-10T12:09:31.611Z,61.10
2019-05-10T12:10:31.986Z,60.05
2019-05-10T12:11:33.803Z,62.22
2019-05-10T12:12:50.158Z,61.95
2019-05-10T12:13:32.725Z,64.10
2019-05-10T12:14:30.295Z,64.67
2019-05-10T12:15:31.811Z,66.82
2019-05-10T12:16:33.440Z,67.66
2019-05-10T12:17:30.319Z,68.19
2019-05-10T12:18:32.482Z,68.19
2019-05-10T12:19:36.864Z,67.93
2019-05-10T12:21:33.150Z,68.30
2019-05-10T12:23:31.785Z,67.39
2019-05-10T12:24:45.217Z,67.08
2019-05-10T12:25:46.230Z,68.63
2019-05-10T12:26:16.486Z,67.15
2019-05-10T12:26:16.516Z,61.01
2019-05-10T12:26:31.416Z,67.32
2019-05-10T12:27:43.987Z,68.02
2019-05-10T12:28:35.295Z,67.72
2019-05-10T12:29:31.709Z,67.39
2019-05-10T12:30:34.835Z,68.10
2019-05-10T12:31:31.196Z,67.89
2019-05-10T12:32:33.505Z,68.94
2019-05-10T12:33:31.632Z,68.73
2019-05-10T12:34:31.150Z,68.63
2019-05-10T12:35:35.526Z,67.22
2019-05-10T12:36:31.445Z,68.02
2019-05-10T12:37:30.825Z,66.74
2019-05-10T12:38:32.178Z,64.72
2019-05-10T12:39:30.973Z,65.86
2019-05-10T12:40:31.414Z,65.15
2019-05-10T12:41:31.642Z,65.56
2019-05-10T12:42:31.709Z,65.42
2019-05-10T12:43:30.977Z,66.03
2019-05-10T12:44:33.270Z,65.73
2019-05-10T12:45:31.345Z,65.62
2019-05-10T12:46:30.729Z,65.73
2019-05-10T12:47:30.605Z,65.80
2019-05-10T12:48:31.702Z,65.90
2019-05-10T12:49:31.516Z,66.41
2019-05-10T12:50:29.878Z,66.94
2019-05-10T12:51:31.291Z,66.91
2019-05-10T12:52:32.025Z,67.65
2019-05-10T12:53:31.514Z,67.14